Hollyglen, California
Current Conditions -  °F | °C
As of 5:53 PM on Friday 21 Nov 2014 (Local Time) from KHHR Reporting Station
Clear Clear  
Wind Chill: 66°   Ceiling: Unl
Heat Index: 66°   Visibility: 10mi
Dew Point: 53°   Wind: 5mph
Humidity: 63%   Direction: 180°S
Pressure: 29.98"   Gusts: NA
Location:  33.9143°N, 118.349°W
Report Text: KHHR 220153Z 18004KT 10SM CLR 19/12 A2998 RMK AO2 SLP152 T01890117
Loading
Personal Weather Stations






























Interactive Weather Map New forecast layout! Learn more

10-Day Weather Forecast

Advertisements
Track Severe Weather on mobile